< < Back
Terminal Aerodrome Forecast


Current Version              Previous Versions:   1  2  3  4  5  6  7  8  9  

Terminal Aerodrome Forecast

507
FTUS42 KMLB 301120
TAFDAB
TAF
KDAB 301120Z 3012/0112 18004KT P6SM SCT060 SCT400
     FM301400 13007KT P6SM FEW025 SCT400
     FM301700 11010KT P6SM FEW040 SCT300
     FM010100 12003KT P6SM FEW070 BKN300=



Latest METAR

601
SAUS80 KWBC 301700
MTRDAB
METAR KDAB 301653Z 09010G14KT 10SM FEW036TCU BKN250 29/22 A3000 RMK AO2
SLP158 TCU S-W-NW CB DSNT NE-E T02940217


USA.gov is the U.S. government's official web portal to all federal, state and local government web resources and services.